createdAt,value
2023-02-12T00:03:53.097Z,-1.92
2023-02-12T00:07:55.369Z,-1.93
2023-02-12T00:11:57.511Z,-1.96
2023-02-12T00:15:59.935Z,-2.07
2023-02-12T00:20:03.022Z,-2.33
2023-02-12T00:24:05.512Z,-2.27
2023-02-12T00:28:07.872Z,-2.29
2023-02-12T00:32:10.162Z,-2.13
2023-02-12T00:36:16.810Z,-2.30
2023-02-12T00:40:19.883Z,-2.48
2023-02-12T00:44:22.732Z,-2.33
2023-02-12T00:48:24.961Z,-2.17
2023-02-12T00:52:27.260Z,-2.19
2023-02-12T00:56:29.593Z,-2.14
2023-02-12T01:00:32.158Z,-2.09
2023-02-12T01:04:34.665Z,-2.12
2023-02-12T01:08:37.031Z,-2.21
2023-02-12T01:12:40.677Z,-2.25
2023-02-12T01:16:43.878Z,-2.90
2023-02-12T01:20:47.172Z,-3.13
2023-02-12T01:24:50.834Z,-2.84
2023-02-12T01:28:55.482Z,-2.77
2023-02-12T01:32:57.912Z,-2.73
2023-02-12T01:37:00.326Z,-2.49
2023-02-12T01:41:03.988Z,-2.39
2023-02-12T01:45:14.394Z,-2.33
2023-02-12T01:49:23.116Z,-2.29
2023-02-12T01:53:27.112Z,-2.27
2023-02-12T01:57:33.013Z,-2.26
2023-02-12T02:01:36.634Z,-2.30
2023-02-12T02:06:02.900Z,-2.30
2023-02-12T02:10:06.147Z,-2.24
2023-02-12T02:14:27.054Z,-2.26
2023-02-12T02:18:39.767Z,-2.29
2023-02-12T02:22:42.040Z,-2.26
2023-02-12T02:27:03.675Z,-2.17
2023-02-12T02:31:17.915Z,-2.33
2023-02-12T02:35:36.807Z,-2.42
2023-02-12T02:39:39.184Z,-2.83
2023-02-12T02:43:44.571Z,-2.61
2023-02-12T02:47:52.482Z,-2.48
2023-02-12T02:52:06.983Z,-2.35
2023-02-12T02:56:12.564Z,-2.18
2023-02-12T03:00:18.747Z,-2.24
2023-02-12T03:04:27.144Z,-2.14
2023-02-12T03:08:36.765Z,-2.08
2023-02-12T03:12:48.245Z,-2.06
2023-02-12T03:16:57.091Z,-2.15
2023-02-12T03:21:07.435Z,-2.14
2023-02-12T03:25:15.361Z,-2.15
2023-02-12T03:29:17.953Z,-2.27
2023-02-12T03:33:23.192Z,-2.36
2023-02-12T03:37:29.658Z,-2.44
2023-02-12T03:41:36.165Z,-2.72
2023-02-12T03:45:42.091Z,-2.98
2023-02-12T03:49:51.914Z,-3.31
2023-02-12T03:53:55.355Z,-3.38
2023-02-12T03:58:01.011Z,-3.45
2023-02-12T04:02:03.565Z,-3.40
2023-02-12T04:06:06.061Z,-3.58
2023-02-12T04:10:08.566Z,-3.33
2023-02-12T04:14:20.663Z,-3.14
2023-02-12T04:18:43.950Z,-3.12
2023-02-12T04:22:52.669Z,-3.02
2023-02-12T04:26:57.711Z,-3.04
2023-02-12T04:31:04.070Z,-2.93
2023-02-12T04:35:06.565Z,-2.93
2023-02-12T04:39:11.512Z,-2.97
2023-02-12T04:43:13.965Z,-2.92
2023-02-12T04:47:16.770Z,-2.91
2023-02-12T04:51:18.996Z,-3.02
2023-02-12T04:55:21.513Z,-3.22
2023-02-12T04:59:23.712Z,-3.36
2023-02-12T05:03:27.611Z,-3.45
2023-02-12T05:07:30.053Z,-3.46
2023-02-12T05:11:32.537Z,-3.39
2023-02-12T05:15:34.759Z,-3.68
2023-02-12T05:19:37.100Z,-3.73
2023-02-12T05:23:40.081Z,-3.66
2023-02-12T05:27:42.328Z,-3.55
2023-02-12T05:31:45.115Z,-3.55
2023-02-12T05:35:47.458Z,-3.46
2023-02-12T05:39:50.724Z,-3.37
2023-02-12T05:43:53.654Z,-3.35
2023-02-12T05:47:56.356Z,-3.29
2023-02-12T05:51:58.477Z,-3.21
2023-02-12T05:56:12.737Z,-3.22
2023-02-12T06:00:15.248Z,-3.20
2023-02-12T06:04:23.894Z,-3.29
2023-02-12T06:08:26.535Z,-3.30
2023-02-12T06:12:28.723Z,-3.27
2023-02-12T06:16:31.402Z,-3.26
2023-02-12T06:20:33.707Z,-3.40
2023-02-12T06:24:37.383Z,-3.38
2023-02-12T06:28:40.442Z,-3.24
2023-02-12T06:32:43.264Z,-3.22
2023-02-12T06:36:46.631Z,-3.15
2023-02-12T06:40:49.722Z,-3.08
2023-02-12T06:44:53.151Z,-2.97
2023-02-12T06:48:56.322Z,-3.08
2023-02-12T06:52:58.923Z,-3.07
2023-02-12T06:57:01.104Z,-2.94
2023-02-12T07:01:15.182Z,-2.82
2023-02-12T07:05:17.376Z,-2.73
2023-02-12T07:09:19.690Z,-2.56
2023-02-12T07:13:21.795Z,-2.48
2023-02-12T07:17:23.785Z,-2.35
2023-02-12T07:21:25.908Z,-2.28
2023-02-12T07:25:27.900Z,-2.03
2023-02-12T07:29:29.999Z,-1.86
2023-02-12T07:33:31.997Z,-1.72
2023-02-12T07:37:34.270Z,-1.61
2023-02-12T07:41:36.935Z,-1.49
2023-02-12T07:45:39.001Z,-1.32
2023-02-12T07:49:41.014Z,-1.22
2023-02-12T07:53:43.344Z,-1.03
2023-02-12T07:57:45.484Z,-0.87
2023-02-12T08:01:49.336Z,-0.75
2023-02-12T08:05:51.437Z,-0.61
2023-02-12T08:09:53.662Z,-0.43
2023-02-12T08:13:55.753Z,-0.17
2023-02-12T08:17:57.717Z,0.03
2023-02-12T08:21:59.797Z,0.17
2023-02-12T08:26:21.482Z,0.37
2023-02-12T08:30:23.817Z,0.60
2023-02-12T08:34:26.939Z,0.78
2023-02-12T08:38:29.055Z,1.00
2023-02-12T08:42:31.053Z,1.16
2023-02-12T08:46:34.244Z,1.33
2023-02-12T08:50:36.404Z,1.52
2023-02-12T08:54:38.988Z,1.66
2023-02-12T08:58:41.597Z,1.85
2023-02-12T09:02:43.709Z,2.02
2023-02-12T09:06:46.488Z,2.18
2023-02-12T09:10:48.832Z,2.41
2023-02-12T09:14:52.061Z,2.55
2023-02-12T09:18:54.729Z,2.84
2023-02-12T09:22:58.048Z,3.16
2023-02-12T09:27:00.256Z,3.33
2023-02-12T09:31:09.808Z,3.54
2023-02-12T09:35:12.943Z,3.66
2023-02-12T09:39:15.054Z,3.84
2023-02-12T09:43:18.624Z,4.01
2023-02-12T09:47:27.957Z,4.20
2023-02-12T09:51:31.510Z,4.41
2023-02-12T09:55:35.011Z,4.62
2023-02-12T09:59:52.892Z,4.82
2023-02-12T10:03:55.631Z,5.05
2023-02-12T10:08:16.591Z,5.22
2023-02-12T10:12:54.312Z,5.46
2023-02-12T10:17:02.289Z,5.60
2023-02-12T10:21:11.989Z,5.73
2023-02-12T10:25:23.320Z,5.88
2023-02-12T10:29:27.344Z,6.17
2023-02-12T10:33:37.581Z,6.43
2023-02-12T10:37:45.730Z,6.58
2023-02-12T10:41:54.678Z,6.69
2023-02-12T10:45:57.491Z,6.91
2023-02-12T10:50:01.303Z,6.93
2023-02-12T10:54:22.110Z,7.25
2023-02-12T10:58:27.173Z,7.46
2023-02-12T11:02:33.189Z,7.79
2023-02-12T11:06:35.259Z,7.76
2023-02-12T11:10:41.699Z,8.04
2023-02-12T11:14:48.891Z,8.22
2023-02-12T11:18:58.085Z,8.37
2023-02-12T11:23:02.043Z,8.60
2023-02-12T11:27:16.387Z,8.63
2023-02-12T11:31:23.344Z,8.91
2023-02-12T11:35:27.269Z,9.12
2023-02-12T11:39:29.608Z,9.38
2023-02-12T11:43:34.492Z,9.74
2023-02-12T11:47:40.493Z,9.96
2023-02-12T11:51:47.064Z,10.15
2023-02-12T11:55:57.173Z,10.36
2023-02-12T12:00:01.414Z,10.80
2023-02-12T12:04:18.357Z,10.86
2023-02-12T12:08:26.195Z,11.13
2023-02-12T12:12:44.319Z,11.45
2023-02-12T12:17:13.212Z,11.80
2023-02-12T12:21:15.241Z,12.18
2023-02-12T12:25:28.341Z,12.35
2023-02-12T12:29:41.376Z,12.55
2023-02-12T12:33:43.436Z,12.84
2023-02-12T12:37:53.746Z,12.99
2023-02-12T12:42:14.350Z,13.22
2023-02-12T12:46:31.909Z,13.41
2023-02-12T12:51:06.530Z,13.28
2023-02-12T12:55:27.336Z,13.23
2023-02-12T12:59:35.720Z,13.31
2023-02-12T13:03:52.698Z,13.37
2023-02-12T13:08:18.871Z,13.53
2023-02-12T13:12:39.963Z,13.46
2023-02-12T13:16:56.425Z,13.52
2023-02-12T13:21:04.789Z,13.55
2023-02-12T13:25:16.323Z,13.50
2023-02-12T13:29:25.318Z,13.37
2023-02-12T13:33:47.470Z,13.27
2023-02-12T13:37:52.614Z,13.24
2023-02-12T13:42:00.129Z,13.21
2023-02-12T13:46:12.162Z,13.24
2023-02-12T13:50:33.447Z,13.20
2023-02-12T13:54:47.692Z,13.33
2023-02-12T13:58:53.936Z,13.39
2023-02-12T14:02:56.040Z,13.33
2023-02-12T14:07:01.327Z,13.37
2023-02-12T14:11:12.328Z,13.28
2023-02-12T14:15:28.715Z,13.36
2023-02-12T14:20:03.435Z,13.31
2023-02-12T14:24:32.037Z,13.40
2023-02-12T14:28:37.154Z,13.37
2023-02-12T14:32:45.430Z,13.35
2023-02-12T14:36:49.301Z,13.38
2023-02-12T14:40:52.633Z,13.39
2023-02-12T14:44:58.407Z,13.47
2023-02-12T14:49:06.127Z,13.47
2023-02-12T14:53:23.646Z,13.39
2023-02-12T14:57:30.395Z,13.40
2023-02-12T15:01:34.699Z,13.33
2023-02-12T15:05:42.984Z,13.39
2023-02-12T15:09:52.370Z,13.32
2023-02-12T15:14:01.708Z,13.33
2023-02-12T15:18:08.974Z,13.36
2023-02-12T15:22:38.368Z,13.33
2023-02-12T15:26:42.241Z,13.27
2023-02-12T15:30:44.488Z,13.27
2023-02-12T15:34:49.428Z,13.24
2023-02-12T15:38:53.541Z,13.18
2023-02-12T15:42:57.304Z,13.10
2023-02-12T15:47:19.542Z,12.99
2023-02-12T15:51:35.412Z,12.90
2023-02-12T15:55:41.010Z,12.76
2023-02-12T15:59:43.361Z,12.65
2023-02-12T16:03:49.314Z,12.54
2023-02-12T16:07:51.556Z,12.50
2023-02-12T16:11:53.993Z,12.35
2023-02-12T16:16:16.418Z,12.22
2023-02-12T16:20:19.259Z,12.11
2023-02-12T16:24:33.585Z,12.02
2023-02-12T16:28:37.041Z,12.01
2023-02-12T16:32:40.385Z,11.71
2023-02-12T16:36:46.692Z,11.48
2023-02-12T16:41:15.064Z,11.21
2023-02-12T16:45:36.462Z,10.84
2023-02-12T16:49:38.755Z,10.66
2023-02-12T16:53:43.931Z,10.40
2023-02-12T16:57:46.455Z,10.22
2023-02-12T17:02:02.598Z,10.03
2023-02-12T17:06:04.815Z,9.97
2023-02-12T17:10:07.221Z,9.76
2023-02-12T17:14:14.207Z,10.00
2023-02-12T17:18:18.114Z,10.14
2023-02-12T17:22:23.350Z,10.17
2023-02-12T17:26:26.776Z,9.91
2023-02-12T17:30:29.985Z,9.52
2023-02-12T17:34:36.790Z,9.28
2023-02-12T17:38:48.823Z,9.19
2023-02-12T17:42:50.961Z,8.94
2023-02-12T17:46:53.391Z,8.79
2023-02-12T17:50:58.053Z,8.49
2023-02-12T17:55:02.039Z,8.56
2023-02-12T17:59:04.333Z,8.24
2023-02-12T18:03:06.475Z,8.65
2023-02-12T18:07:09.327Z,8.52
2023-02-12T18:11:11.604Z,8.49
2023-02-12T18:15:14.426Z,8.48
2023-02-12T18:19:16.485Z,8.39
2023-02-12T18:23:18.582Z,8.41
2023-02-12T18:27:20.769Z,8.03
2023-02-12T18:31:23.205Z,7.81
2023-02-12T18:35:25.379Z,7.48
2023-02-12T18:39:28.626Z,7.92
2023-02-12T18:43:34.353Z,8.34
2023-02-12T18:47:36.797Z,8.34
2023-02-12T18:51:41.181Z,8.36
2023-02-12T18:55:43.978Z,8.20
2023-02-12T18:59:46.362Z,8.22
2023-02-12T19:03:49.747Z,8.43
2023-02-12T19:07:51.894Z,8.40
2023-02-12T19:11:55.265Z,8.68
2023-02-12T19:15:57.731Z,8.74
2023-02-12T19:20:00.022Z,8.61
2023-02-12T19:24:03.283Z,8.81
2023-02-12T19:28:05.591Z,8.62
2023-02-12T19:32:07.885Z,8.73
2023-02-12T19:36:11.698Z,8.71
2023-02-12T19:40:14.076Z,8.51
2023-02-12T19:44:19.073Z,8.33
2023-02-12T19:48:21.338Z,8.36
2023-02-12T19:52:23.766Z,8.27
2023-02-12T19:56:26.038Z,8.12
2023-02-12T20:00:28.132Z,7.95
2023-02-12T20:04:31.214Z,7.98
2023-02-12T20:08:33.355Z,7.83
2023-02-12T20:12:40.231Z,7.51
2023-02-12T20:16:44.013Z,7.37
2023-02-12T20:20:46.192Z,7.35
2023-02-12T20:24:48.678Z,7.28
2023-02-12T20:28:51.375Z,7.34
2023-02-12T20:32:53.692Z,7.33
2023-02-12T20:36:55.971Z,7.01
2023-02-12T20:41:05.319Z,6.75
2023-02-12T20:45:07.832Z,6.60
2023-02-12T20:49:12.247Z,6.37
2023-02-12T20:53:15.151Z,6.16
2023-02-12T20:57:17.359Z,6.06
2023-02-12T21:01:24.826Z,6.02
2023-02-12T21:05:27.151Z,6.06
2023-02-12T21:09:29.294Z,5.83
2023-02-12T21:13:31.291Z,5.65
2023-02-12T21:17:34.761Z,5.90
2023-02-12T21:21:39.962Z,5.97
2023-02-12T21:25:42.343Z,5.78
2023-02-12T21:29:45.511Z,5.49
2023-02-12T21:33:48.717Z,5.79
2023-02-12T21:37:50.757Z,6.06
2023-02-12T21:41:54.420Z,5.84
2023-02-12T21:45:56.602Z,6.24
2023-02-12T21:49:58.639Z,6.40
2023-02-12T21:54:01.883Z,6.33
2023-02-12T21:58:03.960Z,5.97
2023-02-12T22:02:06.931Z,5.44
2023-02-12T22:06:09.259Z,5.11
2023-02-12T22:10:11.378Z,5.06
2023-02-12T22:14:14.605Z,4.95
2023-02-12T22:18:16.558Z,4.95
2023-02-12T22:22:18.605Z,4.71
2023-02-12T22:26:22.296Z,4.59
2023-02-12T22:30:24.390Z,4.56
2023-02-12T22:34:26.557Z,4.51
2023-02-12T22:38:28.587Z,4.53
2023-02-12T22:42:31.317Z,4.36
2023-02-12T22:46:35.290Z,4.27
2023-02-12T22:50:39.058Z,3.97
2023-02-12T22:54:41.357Z,3.87
2023-02-12T22:58:43.421Z,3.74
2023-02-12T23:02:45.448Z,3.78
2023-02-12T23:06:47.523Z,3.76
2023-02-12T23:10:49.658Z,3.78
2023-02-12T23:14:52.907Z,3.74
2023-02-12T23:18:59.242Z,3.67
2023-02-12T23:23:03.465Z,4.11
2023-02-12T23:27:05.918Z,3.97
2023-02-12T23:31:07.961Z,3.91
2023-02-12T23:35:12.953Z,3.62
2023-02-12T23:39:15.130Z,3.58
2023-02-12T23:43:17.109Z,3.45
2023-02-12T23:47:19.321Z,3.32
2023-02-12T23:51:21.520Z,3.38
2023-02-12T23:55:23.717Z,3.54
2023-02-12T23:59:26.060Z,4.08
